createdAt,value
2023-01-01T00:00:02.427Z,1002.29
2023-01-01T00:01:02.765Z,1002.42
2023-01-01T00:02:02.969Z,1002.45
2023-01-01T00:03:02.350Z,1002.38
2023-01-01T00:04:02.872Z,1002.42
2023-01-01T00:05:02.960Z,1002.31
2023-01-01T00:06:02.797Z,1002.36
2023-01-01T00:07:03.091Z,1002.42
2023-01-01T00:08:05.041Z,1002.45
2023-01-01T00:09:03.378Z,1002.39
2023-01-01T00:10:03.278Z,1002.29
2023-01-01T00:11:03.119Z,1002.30
2023-01-01T00:12:03.109Z,1002.33
2023-01-01T00:13:03.429Z,1002.23
2023-01-01T00:14:08.288Z,1002.34
2023-01-01T00:15:03.531Z,1002.38
2023-01-01T00:16:03.403Z,1002.36
2023-01-01T00:17:02.420Z,1002.30
2023-01-01T00:18:02.333Z,1002.28
2023-01-01T00:19:02.578Z,1002.29
2023-01-01T00:20:02.605Z,1002.32
2023-01-01T00:21:02.794Z,1002.36
2023-01-01T00:22:27.904Z,1002.36
2023-01-01T00:23:02.862Z,1002.36
2023-01-01T00:24:02.885Z,1002.35
2023-01-01T00:25:02.910Z,1002.21
2023-01-01T00:26:02.843Z,1002.31
2023-01-01T00:27:02.455Z,1002.26
2023-01-01T00:28:02.350Z,1002.25
2023-01-01T00:29:02.631Z,1002.32
2023-01-01T00:30:02.992Z,1002.19
2023-01-01T00:31:03.014Z,1002.22
2023-01-01T00:32:03.001Z,1002.24
2023-01-01T00:33:02.825Z,1002.23
2023-01-01T00:34:02.958Z,1002.17
2023-01-01T00:35:03.119Z,1002.22
2023-01-01T00:36:03.098Z,1002.18
2023-01-01T00:37:03.113Z,1002.19
2023-01-01T00:38:03.121Z,1002.21
2023-01-01T00:39:03.421Z,1002.17
2023-01-01T00:40:03.446Z,1002.15
2023-01-01T00:41:03.943Z,1002.23
2023-01-01T00:42:02.579Z,1002.17
2023-01-01T00:43:02.684Z,1002.15
2023-01-01T00:44:03.147Z,1002.16
2023-01-01T00:45:02.790Z,1002.25
2023-01-01T00:46:02.882Z,1002.20
2023-01-01T00:47:02.815Z,1002.18
2023-01-01T00:48:03.139Z,1002.19
2023-01-01T00:49:02.725Z,1002.32
2023-01-01T00:50:02.901Z,1002.41
2023-01-01T00:51:03.108Z,1002.52
2023-01-01T00:52:03.070Z,1002.53
2023-01-01T00:53:02.879Z,1002.57
2023-01-01T00:54:02.844Z,1002.57
2023-01-01T00:55:03.370Z,1002.49
2023-01-01T00:56:02.983Z,1002.50
2023-01-01T00:57:03.203Z,1002.47
2023-01-01T00:58:03.024Z,1002.48
2023-01-01T00:59:03.497Z,1002.51
2023-01-01T01:00:03.055Z,1002.52
2023-01-01T01:01:03.199Z,1002.53
2023-01-01T01:02:03.020Z,1002.52
2023-01-01T01:03:02.584Z,1002.48
2023-01-01T01:04:02.411Z,1002.51
2023-01-01T01:05:02.537Z,1002.48
2023-01-01T01:06:02.822Z,1002.41
2023-01-01T01:07:02.320Z,1002.54
2023-01-01T01:08:02.895Z,1002.37
2023-01-01T01:09:02.430Z,1002.39
2023-01-01T01:10:02.670Z,1002.45
2023-01-01T01:11:02.328Z,1002.35
2023-01-01T01:12:17.672Z,1002.43
2023-01-01T01:13:02.707Z,1002.33
2023-01-01T01:14:03.387Z,1002.21
2023-01-01T01:15:02.988Z,1002.25
2023-01-01T01:16:03.169Z,1002.18
2023-01-01T01:17:02.920Z,1002.36
2023-01-01T01:18:03.580Z,1002.30
2023-01-01T01:19:03.697Z,1002.24
2023-01-01T01:20:03.483Z,1002.27
2023-01-01T01:21:03.529Z,1002.28
2023-01-01T01:22:02.299Z,1002.33
2023-01-01T01:23:01.968Z,1002.29
2023-01-01T01:24:02.529Z,1002.35
2023-01-01T01:25:02.253Z,1002.36
2023-01-01T01:26:02.302Z,1002.44
2023-01-01T01:27:02.975Z,1002.44
2023-01-01T01:28:02.949Z,1002.42
2023-01-01T01:29:02.903Z,1002.45
2023-01-01T01:30:03.227Z,1002.53
2023-01-01T01:31:02.867Z,1002.58
2023-01-01T01:32:02.936Z,1002.61
2023-01-01T01:33:03.381Z,1002.65
2023-01-01T01:34:03.315Z,1002.72
2023-01-01T01:35:03.030Z,1002.69
2023-01-01T01:36:03.041Z,1002.69
2023-01-01T01:37:02.343Z,1002.61
2023-01-01T01:38:02.316Z,1002.76
2023-01-01T01:39:02.506Z,1002.75
2023-01-01T01:40:02.304Z,1002.73
2023-01-01T01:41:02.330Z,1002.73
2023-01-01T01:42:02.602Z,1002.74
2023-01-01T01:43:03.233Z,1002.81
2023-01-01T01:44:03.241Z,1002.85
2023-01-01T01:45:02.902Z,1002.79
2023-01-01T01:46:02.832Z,1002.78
2023-01-01T01:47:02.659Z,1002.78
2023-01-01T01:48:02.677Z,1002.90
2023-01-01T01:49:02.476Z,1002.78
2023-01-01T01:50:02.587Z,1002.79
2023-01-01T01:51:02.844Z,1002.88
2023-01-01T01:52:02.928Z,1002.88
2023-01-01T01:53:03.017Z,1002.92
2023-01-01T01:54:02.756Z,1002.85
2023-01-01T01:55:02.648Z,1002.93
2023-01-01T01:56:02.829Z,1002.92
2023-01-01T01:57:03.182Z,1003.07
2023-01-01T01:58:03.274Z,1003.04
2023-01-01T01:59:03.367Z,1002.93
2023-01-01T02:00:10.285Z,1002.88
2023-01-01T02:01:03.048Z,1003.05
2023-01-01T02:02:03.170Z,1003.07
2023-01-01T02:03:03.333Z,1003.00
2023-01-01T02:04:03.589Z,1003.12
2023-01-01T02:05:03.220Z,1003.10
2023-01-01T02:06:03.552Z,1003.12
2023-01-01T02:07:02.965Z,1003.14
2023-01-01T02:08:02.976Z,1003.15
2023-01-01T02:09:03.132Z,1003.09
2023-01-01T02:10:03.145Z,1003.10
2023-01-01T02:11:03.399Z,1003.16
2023-01-01T02:12:02.838Z,1003.18
2023-01-01T02:13:02.304Z,1003.07
2023-01-01T02:14:02.276Z,1003.09
2023-01-01T02:15:02.851Z,1003.12
2023-01-01T02:16:02.961Z,1003.13
2023-01-01T02:17:03.386Z,1003.12
2023-01-01T02:18:03.200Z,1003.14
2023-01-01T02:19:03.369Z,1003.14
2023-01-01T02:20:03.240Z,1003.21
2023-01-01T02:21:03.232Z,1003.19
2023-01-01T02:22:02.989Z,1003.18
2023-01-01T02:23:04.603Z,1003.14
2023-01-01T02:24:02.515Z,1003.15
2023-01-01T02:25:02.880Z,1003.15
2023-01-01T02:26:02.512Z,1003.17
2023-01-01T02:27:03.255Z,1003.16
2023-01-01T02:28:02.946Z,1003.11
2023-01-01T02:29:03.072Z,1003.14
2023-01-01T02:30:02.929Z,1003.20
2023-01-01T02:31:02.898Z,1003.19
2023-01-01T02:32:03.486Z,1003.19
2023-01-01T02:33:03.740Z,1003.20
2023-01-01T02:34:03.787Z,1003.16
2023-01-01T02:35:03.475Z,1003.15
2023-01-01T02:36:02.949Z,1003.14
2023-01-01T02:37:03.582Z,1003.15
2023-01-01T02:38:03.345Z,1003.17
2023-01-01T02:39:03.654Z,1003.17
2023-01-01T02:40:03.431Z,1003.22
2023-01-01T02:41:03.390Z,1003.23
2023-01-01T02:42:02.606Z,1003.29
2023-01-01T02:43:03.140Z,1003.24
2023-01-01T02:45:02.705Z,1003.20
2023-01-01T02:46:03.004Z,1003.27
2023-01-01T02:47:03.496Z,1003.18
2023-01-01T02:48:03.349Z,1003.27
2023-01-01T02:49:09.910Z,1003.24
2023-01-01T02:50:03.502Z,1003.27
2023-01-01T02:51:03.274Z,1003.29
2023-01-01T02:52:02.310Z,1003.32
2023-01-01T02:53:02.789Z,1003.27
2023-01-01T02:54:02.599Z,1003.22
2023-01-01T02:55:02.600Z,1003.28
2023-01-01T02:56:02.315Z,1003.36
2023-01-01T02:57:03.371Z,1003.35
2023-01-01T02:58:03.180Z,1003.23
2023-01-01T02:59:03.147Z,1003.25
2023-01-01T03:00:02.865Z,1003.26
2023-01-01T03:01:03.220Z,1003.23
2023-01-01T03:02:02.291Z,1003.27
2023-01-01T03:03:02.411Z,1003.18
2023-01-01T03:04:02.204Z,1003.21
2023-01-01T03:05:02.769Z,1003.22
2023-01-01T03:06:03.089Z,1003.24
2023-01-01T03:07:02.871Z,1003.26
2023-01-01T03:08:02.498Z,1003.11
2023-01-01T03:09:02.364Z,1003.16
2023-01-01T03:10:02.639Z,1003.25
2023-01-01T03:11:02.962Z,1003.24
2023-01-01T03:12:01.934Z,1003.17
2023-01-01T03:13:01.831Z,1003.23
2023-01-01T03:14:02.488Z,1003.20
2023-01-01T03:15:02.281Z,1003.19
2023-01-01T03:16:02.032Z,1003.25
2023-01-01T03:17:02.554Z,1003.20
2023-01-01T03:18:03.030Z,1003.22
2023-01-01T03:19:02.894Z,1003.19
2023-01-01T03:20:02.774Z,1003.21
2023-01-01T03:21:02.945Z,1003.25
2023-01-01T03:22:02.112Z,1003.20
2023-01-01T03:23:02.244Z,1003.18
2023-01-01T03:24:02.221Z,1003.22
2023-01-01T03:25:02.351Z,1003.22
2023-01-01T03:26:02.085Z,1003.20
2023-01-01T03:27:02.419Z,1003.16
2023-01-01T03:28:02.181Z,1003.21
2023-01-01T03:29:02.427Z,1003.22
2023-01-01T03:30:02.326Z,1003.11
2023-01-01T03:31:02.283Z,1003.21
2023-01-01T03:32:02.663Z,1003.11
2023-01-01T03:33:02.302Z,1003.12
2023-01-01T03:34:02.315Z,1003.08
2023-01-01T03:35:02.805Z,1003.09
2023-01-01T03:36:02.963Z,1003.09
2023-01-01T03:37:02.686Z,1003.14
2023-01-01T03:38:02.671Z,1003.21
2023-01-01T03:39:02.634Z,1003.18
2023-01-01T03:40:02.588Z,1003.20
2023-01-01T03:41:02.989Z,1003.17
2023-01-01T03:42:01.983Z,1003.23
2023-01-01T03:43:02.158Z,1003.18
2023-01-01T03:44:02.444Z,1003.27
2023-01-01T03:45:02.138Z,1003.27
2023-01-01T03:46:02.006Z,1003.29
2023-01-01T03:47:03.034Z,1003.31
2023-01-01T03:48:02.819Z,1003.40
2023-01-01T03:49:04.440Z,1003.31
2023-01-01T03:50:02.567Z,1003.39
2023-01-01T03:51:02.954Z,1003.41
2023-01-01T03:52:02.618Z,1003.39
2023-01-01T03:53:02.331Z,1003.31
2023-01-01T03:54:02.067Z,1003.28
2023-01-01T03:55:02.495Z,1003.35
2023-01-01T03:56:02.461Z,1003.24
2023-01-01T03:57:02.489Z,1003.32
2023-01-01T03:58:02.540Z,1003.28
2023-01-01T03:59:02.439Z,1003.39
2023-01-01T04:00:02.275Z,1003.40
2023-01-01T04:01:02.329Z,1003.36
2023-01-01T04:02:03.263Z,1003.35
2023-01-01T04:03:03.532Z,1003.42
2023-01-01T04:04:03.313Z,1003.41
2023-01-01T04:05:03.347Z,1003.42
2023-01-01T04:06:03.018Z,1003.47
2023-01-01T04:07:14.834Z,1003.42
2023-01-01T04:08:02.798Z,1003.46
2023-01-01T04:09:02.917Z,1003.46
2023-01-01T04:10:03.018Z,1003.38
2023-01-01T04:11:02.912Z,1003.30
2023-01-01T04:12:03.192Z,1003.36
2023-01-01T04:13:02.721Z,1003.35
2023-01-01T04:14:03.186Z,1003.31
2023-01-01T04:15:02.639Z,1003.25
2023-01-01T04:16:03.270Z,1003.19
2023-01-01T04:17:02.492Z,1003.24
2023-01-01T04:18:02.793Z,1003.20
2023-01-01T04:19:02.657Z,1003.11
2023-01-01T04:20:02.744Z,1003.17
2023-01-01T04:21:02.384Z,1003.23
2023-01-01T04:22:03.039Z,1003.14
2023-01-01T04:23:02.717Z,1003.26
2023-01-01T04:24:03.248Z,1003.28
2023-01-01T04:25:02.913Z,1003.20
2023-01-01T04:26:03.222Z,1003.34
2023-01-01T04:27:02.446Z,1003.28
2023-01-01T04:28:02.555Z,1003.28
2023-01-01T04:29:02.869Z,1003.27
2023-01-01T04:30:02.899Z,1003.29
2023-01-01T04:31:02.337Z,1003.21
2023-01-01T04:32:03.383Z,1003.21
2023-01-01T04:33:03.433Z,1003.17
2023-01-01T04:34:03.073Z,1003.19
2023-01-01T04:35:03.518Z,1003.24
2023-01-01T04:36:03.030Z,1003.22
2023-01-01T04:37:05.838Z,1003.30
2023-01-01T04:38:02.917Z,1003.23
2023-01-01T04:39:02.961Z,1003.22
2023-01-01T04:40:02.701Z,1003.30
2023-01-01T04:41:02.414Z,1003.15
2023-01-01T04:42:03.344Z,1003.32
2023-01-01T04:43:03.424Z,1003.34
2023-01-01T04:44:02.859Z,1003.33
2023-01-01T04:45:03.316Z,1003.30
2023-01-01T04:46:03.120Z,1003.31
2023-01-01T04:47:02.871Z,1003.38
2023-01-01T04:48:02.577Z,1003.30
2023-01-01T04:49:02.685Z,1003.38
2023-01-01T04:50:02.349Z,1003.28
2023-01-01T04:51:03.008Z,1003.39
2023-01-01T04:52:03.627Z,1003.38
2023-01-01T04:53:03.278Z,1003.38
2023-01-01T04:54:03.003Z,1003.45
2023-01-01T04:55:03.050Z,1003.49
2023-01-01T04:56:03.005Z,1003.43
2023-01-01T04:57:02.709Z,1003.43
2023-01-01T04:58:02.293Z,1003.42
2023-01-01T04:59:02.323Z,1003.45
2023-01-01T05:00:02.204Z,1003.47
2023-01-01T05:01:02.232Z,1003.45
2023-01-01T05:02:02.445Z,1003.36
2023-01-01T05:03:02.764Z,1003.53
2023-01-01T05:04:02.759Z,1003.53
2023-01-01T05:05:02.658Z,1003.62
2023-01-01T05:06:03.041Z,1003.53
2023-01-01T05:07:02.871Z,1003.64
2023-01-01T05:08:02.962Z,1003.57
2023-01-01T05:09:03.329Z,1003.60
2023-01-01T05:10:02.829Z,1003.71
2023-01-01T05:11:03.439Z,1003.67
2023-01-01T05:12:02.311Z,1003.61
2023-01-01T05:13:02.701Z,1003.58
2023-01-01T05:14:02.476Z,1003.67
2023-01-01T05:15:02.533Z,1003.62
2023-01-01T05:16:02.448Z,1003.73
2023-01-01T05:17:02.459Z,1003.75
2023-01-01T05:18:03.029Z,1003.75
2023-01-01T05:19:02.524Z,1003.76
2023-01-01T05:20:02.590Z,1003.77
2023-01-01T05:21:02.410Z,1003.76
2023-01-01T05:22:08.541Z,1003.66
2023-01-01T05:23:02.098Z,1003.70
2023-01-01T05:24:02.131Z,1003.66
2023-01-01T05:25:02.681Z,1003.65
2023-01-01T05:26:02.336Z,1003.56
2023-01-01T05:27:02.764Z,1003.57
2023-01-01T05:28:02.249Z,1003.59
2023-01-01T05:29:02.717Z,1003.61
2023-01-01T05:30:02.522Z,1003.66
2023-01-01T05:31:02.353Z,1003.64
2023-01-01T05:32:02.779Z,1003.62
2023-01-01T05:33:02.683Z,1003.62
2023-01-01T05:35:02.713Z,1003.73
2023-01-01T05:36:03.026Z,1003.81
2023-01-01T05:37:02.969Z,1003.84
2023-01-01T05:38:03.567Z,1003.83
2023-01-01T05:39:03.189Z,1003.88
2023-01-01T05:40:03.585Z,1003.91
2023-01-01T05:41:03.281Z,1003.91
2023-01-01T05:42:02.661Z,1003.98
2023-01-01T05:43:02.920Z,1003.99
2023-01-01T05:44:02.795Z,1004.08
2023-01-01T05:45:02.995Z,1004.09
2023-01-01T05:46:03.211Z,1004.09
2023-01-01T05:47:02.970Z,1004.07
2023-01-01T05:48:03.305Z,1004.10
2023-01-01T05:49:02.861Z,1004.02
2023-01-01T05:51:03.101Z,1004.00
2023-01-01T05:52:02.278Z,1003.94
2023-01-01T05:53:02.160Z,1003.89
2023-01-01T05:54:02.098Z,1003.91
2023-01-01T05:55:02.076Z,1003.90
2023-01-01T05:56:03.110Z,1003.93
2023-01-01T05:57:02.719Z,1003.91
2023-01-01T05:58:03.274Z,1004.04
2023-01-01T05:59:02.813Z,1004.08
2023-01-01T06:00:02.848Z,1004.05
2023-01-01T06:01:03.206Z,1004.10
2023-01-01T06:02:03.308Z,1004.12
2023-01-01T06:03:03.379Z,1004.20
2023-01-01T06:04:03.169Z,1004.20
2023-01-01T06:05:03.141Z,1004.27
2023-01-01T06:06:03.285Z,1004.20
2023-01-01T06:07:03.271Z,1004.26
2023-01-01T06:08:03.456Z,1004.24
2023-01-01T06:09:03.282Z,1004.31
2023-01-01T06:10:03.593Z,1004.31
2023-01-01T06:11:03.594Z,1004.33
2023-01-01T06:12:03.078Z,1004.42
2023-01-01T06:13:09.534Z,1004.40
2023-01-01T06:14:03.185Z,1004.47
2023-01-01T06:15:02.770Z,1004.41
2023-01-01T06:16:03.228Z,1004.40
2023-01-01T06:17:02.563Z,1004.49
2023-01-01T06:18:03.307Z,1004.50
2023-01-01T06:19:02.618Z,1004.47
2023-01-01T06:20:02.466Z,1004.54
2023-01-01T06:21:02.623Z,1004.44
2023-01-01T06:22:03.530Z,1004.54
2023-01-01T06:23:03.175Z,1004.59
2023-01-01T06:24:02.990Z,1004.59
2023-01-01T06:25:02.966Z,1004.63
2023-01-01T06:26:03.129Z,1004.67
2023-01-01T06:27:03.402Z,1004.66
2023-01-01T06:28:03.218Z,1004.59
2023-01-01T06:29:03.197Z,1004.61
2023-01-01T06:30:03.128Z,1004.67
2023-01-01T06:31:03.215Z,1004.63
2023-01-01T06:32:02.390Z,1004.61
2023-01-01T06:33:02.563Z,1004.63
2023-01-01T06:34:02.427Z,1004.57
2023-01-01T06:35:02.292Z,1004.67
2023-01-01T06:36:02.472Z,1004.64
2023-01-01T06:37:06.682Z,1004.66
2023-01-01T06:38:02.802Z,1004.72
2023-01-01T06:39:03.171Z,1004.66
2023-01-01T06:40:02.964Z,1004.61
2023-01-01T06:41:03.172Z,1004.67
2023-01-01T06:42:03.164Z,1004.76
2023-01-01T06:43:03.151Z,1004.78
2023-01-01T06:44:03.256Z,1004.74
2023-01-01T06:45:02.910Z,1004.78
2023-01-01T06:46:03.926Z,1004.77
2023-01-01T06:47:02.752Z,1004.71
2023-01-01T06:48:02.714Z,1004.85
2023-01-01T06:49:03.046Z,1004.93
2023-01-01T06:50:02.539Z,1004.95
2023-01-01T06:51:03.153Z,1004.98
2023-01-01T06:52:03.092Z,1005.01
2023-01-01T06:53:03.092Z,1005.05
2023-01-01T06:54:03.024Z,1005.07
2023-01-01T06:55:02.736Z,1005.03
2023-01-01T06:56:03.160Z,1005.08
2023-01-01T06:57:02.821Z,1004.99
2023-01-01T06:58:03.370Z,1004.92
2023-01-01T06:59:03.024Z,1005.00
2023-01-01T07:00:02.925Z,1005.14
2023-01-01T07:01:08.005Z,1005.02
2023-01-01T07:02:02.523Z,1005.07
2023-01-01T07:03:02.532Z,1005.04
2023-01-01T07:04:01.916Z,1005.03
2023-01-01T07:05:01.926Z,1004.98
2023-01-01T07:06:02.349Z,1004.94
2023-01-01T07:07:02.867Z,1004.92
2023-01-01T07:08:02.772Z,1004.99
2023-01-01T07:09:02.992Z,1005.01
2023-01-01T07:10:02.622Z,1004.99
2023-01-01T07:11:02.912Z,1004.93
2023-01-01T07:12:03.410Z,1004.93
2023-01-01T07:13:02.520Z,1005.01
2023-01-01T07:14:02.465Z,1005.01
2023-01-01T07:15:02.972Z,1005.02
2023-01-01T07:16:06.921Z,1004.95
2023-01-01T07:17:03.139Z,1005.00
2023-01-01T07:18:02.961Z,1005.03
2023-01-01T07:19:02.999Z,1004.96
2023-01-01T07:20:02.956Z,1005.00
2023-01-01T07:21:03.253Z,1005.08
2023-01-01T07:22:02.258Z,1005.03
2023-01-01T07:23:02.259Z,1005.06
2023-01-01T07:24:02.484Z,1005.14
2023-01-01T07:25:02.670Z,1005.11
2023-01-01T07:26:02.719Z,1005.08
2023-01-01T07:27:03.419Z,1005.16
2023-01-01T07:28:02.987Z,1005.19
2023-01-01T07:29:07.460Z,1005.20
2023-01-01T07:30:02.639Z,1005.25
2023-01-01T07:31:02.733Z,1005.30
2023-01-01T07:32:03.269Z,1005.32
2023-01-01T07:33:03.073Z,1005.28
2023-01-01T07:34:03.037Z,1005.30
2023-01-01T07:35:03.032Z,1005.33
2023-01-01T07:36:03.198Z,1005.34
2023-01-01T07:37:02.530Z,1005.39
2023-01-01T07:38:02.542Z,1005.36
2023-01-01T07:39:02.453Z,1005.33
2023-01-01T07:40:02.431Z,1005.38
2023-01-01T07:41:02.596Z,1005.38
2023-01-01T07:42:09.166Z,1005.37
2023-01-01T07:43:03.199Z,1005.45
2023-01-01T07:44:02.917Z,1005.52
2023-01-01T07:45:02.623Z,1005.50
2023-01-01T07:46:03.286Z,1005.48
2023-01-01T07:47:03.250Z,1005.48
2023-01-01T07:48:02.993Z,1005.55
2023-01-01T07:49:03.001Z,1005.60
2023-01-01T07:50:03.579Z,1005.59
2023-01-01T07:51:02.670Z,1005.62
2023-01-01T07:52:01.987Z,1005.57
2023-01-01T07:53:01.874Z,1005.51
2023-01-01T07:54:06.543Z,1005.59
2023-01-01T07:55:02.269Z,1005.53
2023-01-01T07:56:02.043Z,1005.57
2023-01-01T07:57:02.595Z,1005.60
2023-01-01T07:58:02.312Z,1005.63
2023-01-01T07:59:02.254Z,1005.63
2023-01-01T08:00:02.148Z,1005.62
2023-01-01T08:01:02.249Z,1005.68
2023-01-01T08:02:02.984Z,1005.71
2023-01-01T08:03:02.725Z,1005.78
2023-01-01T08:04:02.221Z,1005.83
2023-01-01T08:05:02.579Z,1005.79
2023-01-01T08:06:02.534Z,1005.81
2023-01-01T08:07:02.614Z,1005.81
2023-01-01T08:08:02.733Z,1005.85
2023-01-01T08:09:02.938Z,1005.78
2023-01-01T08:10:02.995Z,1005.83
2023-01-01T08:11:04.054Z,1005.86
2023-01-01T08:12:02.159Z,1006.01
2023-01-01T08:13:02.360Z,1006.04
2023-01-01T08:14:02.360Z,1006.08
2023-01-01T08:15:02.646Z,1006.10
2023-01-01T08:16:02.241Z,1006.03
2023-01-01T08:17:02.611Z,1005.93
2023-01-01T08:18:02.717Z,1005.93
2023-01-01T08:19:02.603Z,1005.94
2023-01-01T08:20:02.730Z,1005.93
2023-01-01T08:21:03.271Z,1005.94
2023-01-01T08:22:02.168Z,1005.99
2023-01-01T08:23:06.959Z,1005.96
2023-01-01T08:24:02.184Z,1006.02
2023-01-01T08:25:02.620Z,1005.94
2023-01-01T08:26:02.221Z,1005.99
2023-01-01T08:27:02.612Z,1006.00
2023-01-01T08:28:02.936Z,1005.97
2023-01-01T08:29:03.026Z,1006.00
2023-01-01T08:30:02.524Z,1005.97
2023-01-01T08:31:03.340Z,1005.90
2023-01-01T08:32:02.807Z,1005.93
2023-01-01T08:33:03.164Z,1005.93
2023-01-01T08:34:03.254Z,1005.95
2023-01-01T08:35:03.309Z,1005.94
2023-01-01T08:36:03.247Z,1006.01
2023-01-01T08:37:02.677Z,1006.08
2023-01-01T08:38:02.845Z,1006.09
2023-01-01T08:39:02.373Z,1006.16
2023-01-01T08:40:02.697Z,1006.13
2023-01-01T08:41:02.692Z,1006.18
2023-01-01T08:42:05.780Z,1006.19
2023-01-01T08:43:02.653Z,1006.16
2023-01-01T08:44:03.007Z,1006.07
2023-01-01T08:45:02.995Z,1006.10
2023-01-01T08:46:02.557Z,1006.15
2023-01-01T08:47:03.016Z,1006.16
2023-01-01T08:48:03.441Z,1006.20
2023-01-01T08:49:03.063Z,1006.25
2023-01-01T08:50:02.891Z,1006.24
2023-01-01T08:51:03.022Z,1006.25
2023-01-01T08:52:02.587Z,1006.23
2023-01-01T08:53:02.608Z,1006.28
2023-01-01T08:54:02.432Z,1006.36
2023-01-01T08:55:02.806Z,1006.32
2023-01-01T08:56:02.724Z,1006.38
2023-01-01T08:57:02.876Z,1006.39
2023-01-01T08:58:03.061Z,1006.52
2023-01-01T08:59:04.471Z,1006.54
2023-01-01T09:00:02.938Z,1006.54
2023-01-01T09:01:03.414Z,1006.49
2023-01-01T09:02:02.579Z,1006.46
2023-01-01T09:03:02.955Z,1006.48
2023-01-01T09:04:02.387Z,1006.40
2023-01-01T09:05:02.761Z,1006.42
2023-01-01T09:06:02.743Z,1006.39
2023-01-01T09:07:03.128Z,1006.34
2023-01-01T09:08:03.296Z,1006.31
2023-01-01T09:09:03.122Z,1006.32
2023-01-01T09:10:03.231Z,1006.33
2023-01-01T09:11:03.305Z,1006.27
2023-01-01T09:12:02.234Z,1006.25
2023-01-01T09:13:02.448Z,1006.23
2023-01-01T09:14:02.447Z,1006.30
2023-01-01T09:15:02.557Z,1006.36
2023-01-01T09:16:02.623Z,1006.36
2023-01-01T09:17:02.777Z,1006.31
2023-01-01T09:18:02.757Z,1006.35
2023-01-01T09:19:02.659Z,1006.40
2023-01-01T09:20:02.638Z,1006.48
2023-01-01T09:21:02.982Z,1006.43
2023-01-01T09:22:02.330Z,1006.45
2023-01-01T09:23:05.874Z,1006.45
2023-01-01T09:24:02.559Z,1006.49
2023-01-01T09:25:02.657Z,1006.51
2023-01-01T09:26:02.189Z,1006.47
2023-01-01T09:27:02.391Z,1006.45
2023-01-01T09:28:02.292Z,1006.53
2023-01-01T09:29:02.464Z,1006.54
2023-01-01T09:30:02.658Z,1006.59
2023-01-01T09:31:02.240Z,1006.60
2023-01-01T09:32:03.317Z,1006.69
2023-01-01T09:33:02.729Z,1006.66
2023-01-01T09:34:02.796Z,1006.66
2023-01-01T09:35:03.041Z,1006.63
2023-01-01T09:36:03.326Z,1006.63
2023-01-01T09:37:03.041Z,1006.72
2023-01-01T09:38:02.520Z,1006.66
2023-01-01T09:39:02.548Z,1006.74
2023-01-01T09:40:02.693Z,1006.79
2023-01-01T09:41:02.518Z,1006.80
2023-01-01T09:42:02.699Z,1006.89
2023-01-01T09:43:02.865Z,1007.01
2023-01-01T09:44:02.354Z,1007.02
2023-01-01T09:45:02.578Z,1007.05
2023-01-01T09:46:02.561Z,1007.09
2023-01-01T09:47:03.071Z,1007.06
2023-01-01T09:48:03.197Z,1007.09
2023-01-01T09:49:03.003Z,1007.08
2023-01-01T09:50:03.146Z,1007.06
2023-01-01T09:51:02.905Z,1007.00
2023-01-01T09:52:02.581Z,1006.97
2023-01-01T09:53:02.198Z,1006.96
2023-01-01T09:54:02.625Z,1006.91
2023-01-01T09:55:02.148Z,1006.95
2023-01-01T09:56:02.366Z,1006.94
2023-01-01T09:57:02.814Z,1006.96
2023-01-01T09:58:02.957Z,1006.90
2023-01-01T09:59:02.585Z,1006.90
2023-01-01T10:00:02.387Z,1006.92
2023-01-01T10:01:02.572Z,1007.06
2023-01-01T10:02:03.012Z,1007.12
2023-01-01T10:03:02.861Z,1007.12
2023-01-01T10:04:02.652Z,1007.07
2023-01-01T10:05:03.018Z,1007.09
2023-01-01T10:06:03.352Z,1007.05
2023-01-01T10:07:03.528Z,1006.99
2023-01-01T10:08:03.629Z,1007.06
2023-01-01T10:09:03.650Z,1007.03
2023-01-01T10:10:03.255Z,1007.00
2023-01-01T10:11:03.329Z,1007.06
2023-01-01T10:12:03.348Z,1007.08
2023-01-01T10:13:03.026Z,1007.01
2023-01-01T10:14:02.888Z,1007.00
2023-01-01T10:15:03.062Z,1006.95
2023-01-01T10:16:03.991Z,1006.94
2023-01-01T10:17:03.542Z,1006.95
2023-01-01T10:18:03.486Z,1006.89
2023-01-01T10:19:03.051Z,1006.92
2023-01-01T10:20:03.135Z,1006.94
2023-01-01T10:21:03.323Z,1006.89
2023-01-01T10:22:03.169Z,1006.95
2023-01-01T10:23:03.363Z,1007.00
2023-01-01T10:24:02.824Z,1007.03
2023-01-01T10:25:03.050Z,1007.05
2023-01-01T10:26:03.349Z,1007.07
2023-01-01T10:27:03.652Z,1006.98
2023-01-01T10:28:03.245Z,1006.98
2023-01-01T10:29:03.311Z,1007.02
2023-01-01T10:30:04.657Z,1007.01
2023-01-01T10:31:03.592Z,1007.07
2023-01-01T10:32:03.358Z,1007.04
2023-01-01T10:33:03.087Z,1007.05
2023-01-01T10:34:03.131Z,1007.04
2023-01-01T10:35:03.153Z,1007.01
2023-01-01T10:36:03.156Z,1007.01
2023-01-01T10:37:03.590Z,1007.05
2023-01-01T10:38:03.547Z,1007.09
2023-01-01T10:39:03.122Z,1007.08
2023-01-01T10:40:03.062Z,1007.07
2023-01-01T10:41:03.398Z,1007.06
2023-01-01T10:42:02.315Z,1007.00
2023-01-01T10:43:02.470Z,1007.05
2023-01-01T10:44:02.667Z,1006.98
2023-01-01T10:45:02.777Z,1006.95
2023-01-01T10:46:03.383Z,1006.94
2023-01-01T10:47:03.007Z,1007.02
2023-01-01T10:48:03.182Z,1007.04
2023-01-01T10:49:03.428Z,1007.05
2023-01-01T10:50:03.034Z,1007.07
2023-01-01T10:51:03.596Z,1007.02
2023-01-01T10:52:03.391Z,1007.00
2023-01-01T10:53:02.582Z,1006.99
2023-01-01T10:54:03.004Z,1006.99
2023-01-01T10:55:02.576Z,1007.01
2023-01-01T10:56:02.486Z,1006.98
2023-01-01T10:57:02.935Z,1006.94
2023-01-01T10:58:03.110Z,1006.90
2023-01-01T10:59:03.245Z,1006.85
2023-01-01T11:00:03.609Z,1006.82
2023-01-01T11:01:03.967Z,1006.81
2023-01-01T11:02:03.931Z,1006.81
2023-01-01T11:03:03.195Z,1006.78
2023-01-01T11:04:03.530Z,1006.79
2023-01-01T11:05:08.511Z,1006.76
2023-01-01T11:06:03.402Z,1006.79
2023-01-01T11:07:03.596Z,1006.86
2023-01-01T11:08:03.506Z,1006.87
2023-01-01T11:09:03.505Z,1006.89
2023-01-01T11:10:04.869Z,1006.85
2023-01-01T11:11:03.398Z,1006.83
2023-01-01T11:12:09.402Z,1006.81
2023-01-01T11:13:05.634Z,1006.83
2023-01-01T11:14:03.207Z,1006.78
2023-01-01T11:15:03.128Z,1006.77
2023-01-01T11:16:03.393Z,1006.81
2023-01-01T11:17:03.409Z,1006.79
2023-01-01T11:18:03.639Z,1006.84
2023-01-01T11:19:03.491Z,1006.80
2023-01-01T11:20:03.676Z,1006.84
2023-01-01T11:21:03.436Z,1006.85
2023-01-01T11:22:03.215Z,1006.79
2023-01-01T11:23:02.576Z,1006.79
2023-01-01T11:24:02.945Z,1006.77
2023-01-01T11:25:03.458Z,1006.70
2023-01-01T11:26:02.567Z,1006.71
2023-01-01T11:27:03.105Z,1006.71
2023-01-01T11:28:03.084Z,1006.69
2023-01-01T11:29:03.335Z,1006.76
2023-01-01T11:30:02.754Z,1006.75
2023-01-01T11:31:03.351Z,1006.76
2023-01-01T11:32:02.756Z,1006.84
2023-01-01T11:33:03.394Z,1006.82
2023-01-01T11:34:03.508Z,1006.86
2023-01-01T11:35:03.670Z,1006.86
2023-01-01T11:36:03.540Z,1006.77
2023-01-01T11:37:03.599Z,1006.79
2023-01-01T11:38:03.529Z,1006.75
2023-01-01T11:39:03.671Z,1006.75
2023-01-01T11:40:03.812Z,1006.77
2023-01-01T11:41:03.777Z,1006.71
2023-01-01T11:42:03.607Z,1006.74
2023-01-01T11:43:02.950Z,1006.70
2023-01-01T11:44:03.383Z,1006.72
2023-01-01T11:45:03.309Z,1006.81
2023-01-01T11:46:03.466Z,1006.88
2023-01-01T11:47:03.297Z,1006.83
2023-01-01T11:48:03.172Z,1006.89
2023-01-01T11:49:02.914Z,1006.86
2023-01-01T11:50:02.626Z,1006.77
2023-01-01T11:51:03.140Z,1006.79
2023-01-01T11:52:03.504Z,1006.79
2023-01-01T11:53:03.369Z,1006.79
2023-01-01T11:54:03.397Z,1006.79
2023-01-01T11:55:03.596Z,1006.80
2023-01-01T11:56:03.580Z,1006.77
2023-01-01T11:57:03.561Z,1006.77
2023-01-01T11:58:02.963Z,1006.81
2023-01-01T11:59:02.928Z,1006.83
2023-01-01T12:00:03.097Z,1006.85
2023-01-01T12:01:02.855Z,1006.86
2023-01-01T12:02:02.920Z,1006.88
2023-01-01T12:03:02.725Z,1006.92
2023-01-01T12:04:02.646Z,1006.92
2023-01-01T12:05:02.349Z,1006.89
2023-01-01T12:06:02.668Z,1006.87
2023-01-01T12:07:02.430Z,1006.92
2023-01-01T12:08:02.512Z,1006.82